sensor_id;sensor_type;location;lat;lon;timestamp;pressure;altitude;pressure_sealevel;temperature;humidity
39243;BME280;29823;47.404;8.566;2023-06-01T00:00:24;96461.72;;;15.99;83.82
39243;BME280;29823;47.404;8.566;2023-06-01T00:02:52;96463.63;;;16.08;81.52
39243;BME280;29823;47.404;8.566;2023-06-01T00:05:21;96465.28;;;16.04;91.17
39243;BME280;29823;47.404;8.566;2023-06-01T00:07:49;96459.31;;;16.07;91.18
39243;BME280;29823;47.404;8.566;2023-06-01T00:10:17;96467.66;;;15.86;88.97
39243;BME280;29823;47.404;8.566;2023-06-01T00:12:45;96469.44;;;15.60;90.04
39243;BME280;29823;47.404;8.566;2023-06-01T00:15:13;96463.25;;;15.65;89.45
39243;BME280;29823;47.404;8.566;2023-06-01T00:17:42;96470.03;;;15.72;84.16
39243;BME280;29823;47.404;8.566;2023-06-01T00:20:10;96463.03;;;15.86;92.15
39243;BME280;29823;47.404;8.566;2023-06-01T00:22:39;96461.97;;;15.82;86.71
39243;BME280;29823;47.404;8.566;2023-06-01T00:25:09;96464.84;;;15.61;91.85
39243;BME280;29823;47.404;8.566;2023-06-01T00:27:37;96461.91;;;15.62;93.92
39243;BME280;29823;47.404;8.566;2023-06-01T00:30:06;96455.38;;;15.53;95.06
39243;BME280;29823;47.404;8.566;2023-06-01T00:32:34;96445.91;;;15.46;90.93
39243;BME280;29823;47.404;8.566;2023-06-01T00:35:02;96452.72;;;15.63;95.72
39243;BME280;29823;47.404;8.566;2023-06-01T00:37:30;96459.69;;;15.54;92.10
39243;BME280;29823;47.404;8.566;2023-06-01T00:39:59;96437.59;;;15.52;91.64
39243;BME280;29823;47.404;8.566;2023-06-01T00:42:27;96461.59;;;15.54;91.63
39243;BME280;29823;47.404;8.566;2023-06-01T00:44:55;96457.06;;;15.69;96.94
39243;BME280;29823;47.404;8.566;2023-06-01T00:47:25;96415.47;;;15.40;98.69
39243;BME280;29823;47.404;8.566;2023-06-01T00:49:53;96464.28;;;15.54;96.78
39243;BME280;29823;47.404;8.566;2023-06-01T00:52:22;96456.78;;;15.66;98.70
39243;BME280;29823;47.404;8.566;2023-06-01T00:54:51;96454.88;;;15.56;90.57
39243;BME280;29823;47.404;8.566;2023-06-01T00:57:21;96454.56;;;15.48;90.47
39243;BME280;29823;47.404;8.566;2023-06-01T00:59:53;96446.50;;;15.53;98.13
39243;BME280;29823;47.404;8.566;2023-06-01T01:02:21;96439.47;;;15.47;94.38
39243;BME280;29823;47.404;8.566;2023-06-01T01:04:50;96459.69;;;15.44;90.81
39243;BME280;29823;47.404;8.566;2023-06-01T01:07:23;96461.97;;;15.26;98.05
39243;BME280;29823;47.404;8.566;2023-06-01T01:09:56;96435.25;;;15.14;100.00
39243;BME280;29823;47.404;8.566;2023-06-01T01:12:33;96459.69;;;15.54;100.00
39243;BME280;29823;47.404;8.566;2023-06-01T01:15:07;96456.97;;;15.39;93.97
39243;BME280;29823;47.404;8.566;2023-06-01T01:17:41;96450.16;;;15.32;96.01
39243;BME280;29823;47.404;8.566;2023-06-01T01:20:13;96452.56;;;15.28;99.59
39243;BME280;29823;47.404;8.566;2023-06-01T01:23:02;96448.38;;;15.06;99.20
39243;BME280;29823;47.404;8.566;2023-06-01T01:28:36;96460.53;;;15.08;94.96
39243;BME280;29823;47.404;8.566;2023-06-01T01:31:08;96442.91;;;14.91;94.32
39243;BME280;29823;47.404;8.566;2023-06-01T01:33:37;96464.25;;;15.02;94.98
39243;BME280;29823;47.404;8.566;2023-06-01T01:36:06;96468.06;;;15.11;100.00
39243;BME280;29823;47.404;8.566;2023-06-01T01:38:36;96448.13;;;15.07;100.00
39243;BME280;29823;47.404;8.566;2023-06-01T01:41:04;96429.75;;;14.99;100.00
39243;BME280;29823;47.404;8.566;2023-06-01T01:43:33;96462.69;;;15.06;100.00
39243;BME280;29823;47.404;8.566;2023-06-01T01:46:07;96463.13;;;14.93;100.00
39243;BME280;29823;47.404;8.566;2023-06-01T01:48:44;96463.66;;;14.95;100.00
39243;BME280;29823;47.404;8.566;2023-06-01T01:51:19;96462.91;;;14.63;100.00
39243;BME280;29823;47.404;8.566;2023-06-01T01:53:49;96465.38;;;14.70;100.00
39243;BME280;29823;47.404;8.566;2023-06-01T01:56:18;96458.91;;;14.71;100.00
39243;BME280;29823;47.404;8.566;2023-06-01T01:58:49;96447.06;;;14.67;100.00
39243;BME280;29823;47.404;8.566;2023-06-01T02:01:18;96441.47;;;14.42;100.00
39243;BME280;29823;47.404;8.566;2023-06-01T02:03:46;96449.41;;;14.58;100.00
39243;BME280;29823;47.404;8.566;2023-06-01T02:06:14;96458.31;;;14.64;100.00
39243;BME280;29823;47.404;8.566;2023-06-01T02:08:42;96459.91;;;14.60;100.00
39243;BME280;29823;47.404;8.566;2023-06-01T02:11:10;96452.69;;;14.65;100.00
39243;BME280;29823;47.404;8.566;2023-06-01T02:13:38;96451.13;;;14.69;100.00
39243;BME280;29823;47.404;8.566;2023-06-01T02:16:07;96453.47;;;14.61;100.00
39243;BME280;29823;47.404;8.566;2023-06-01T02:18:35;96452.66;;;14.60;100.00
39243;BME280;29823;47.404;8.566;2023-06-01T02:21:05;96449.03;;;14.45;100.00
39243;BME280;29823;47.404;8.566;2023-06-01T02:23:34;96450.78;;;14.29;100.00
39243;BME280;29823;47.404;8.566;2023-06-01T02:26:04;96456.16;;;14.29;100.00
39243;BME280;29823;47.404;8.566;2023-06-01T02:28:32;96454.84;;;14.32;100.00
39243;BME280;29823;47.404;8.566;2023-06-01T02:31:00;96447.63;;;14.37;100.00
39243;BME280;29823;47.404;8.566;2023-06-01T02:33:29;96451.00;;;14.23;100.00
39243;BME280;29823;47.404;8.566;2023-06-01T02:35:57;96452.31;;;14.20;100.00
39243;BME280;29823;47.404;8.566;2023-06-01T02:38:25;96454.84;;;14.32;100.00
39243;BME280;29823;47.404;8.566;2023-06-01T02:40:53;96445.69;;;14.33;100.00
39243;BME280;29823;47.404;8.566;2023-06-01T02:43:21;96459.28;;;14.48;100.00
39243;BME280;29823;47.404;8.566;2023-06-01T02:45:49;96455.09;;;14.62;100.00
39243;BME280;29823;47.404;8.566;2023-06-01T02:48:17;96456.38;;;14.54;100.00
39243;BME280;29823;47.404;8.566;2023-06-01T02:50:46;96449.09;;;14.55;100.00
39243;BME280;29823;47.404;8.566;2023-06-01T02:53:14;96444.69;;;14.39;100.00
39243;BME280;29823;47.404;8.566;2023-06-01T02:55:42;96448.72;;;14.41;100.00
39243;BME280;29823;47.404;8.566;2023-06-01T02:58:10;96446.00;;;14.36;100.00
39243;BME280;29823;47.404;8.566;2023-06-01T03:00:42;96450.91;;;14.44;100.00
39243;BME280;29823;47.404;8.566;2023-06-01T03:03:10;96458.69;;;14.41;100.00
39243;BME280;29823;47.404;8.566;2023-06-01T03:05:39;96459.97;;;14.07;100.00
39243;BME280;29823;47.404;8.566;2023-06-01T03:08:11;96461.19;;;13.94;100.00
39243;BME280;29823;47.404;8.566;2023-06-01T03:10:38;96462.66;;;14.12;100.00
39243;BME280;29823;47.404;8.566;2023-06-01T03:13:06;96465.19;;;13.92;100.00
39243;BME280;29823;47.404;8.566;2023-06-01T03:15:34;96456.25;;;13.86;100.00
39243;BME280;29823;47.404;8.566;2023-06-01T03:18:04;96469.78;;;13.96;100.00
39243;BME280;29823;47.404;8.566;2023-06-01T03:20:32;96473.97;;;13.82;100.00
39243;BME280;29823;47.404;8.566;2023-06-01T03:23:00;96466.88;;;13.76;100.00
39243;BME280;29823;47.404;8.566;2023-06-01T03:25:31;96461.66;;;13.91;100.00
39243;BME280;29823;47.404;8.566;2023-06-01T03:27:59;96466.59;;;13.99;100.00
39243;BME280;29823;47.404;8.566;2023-06-01T03:30:27;96472.31;;;13.81;100.00
39243;BME280;29823;47.404;8.566;2023-06-01T03:32:55;96454.44;;;13.70;100.00
39243;BME280;29823;47.404;8.566;2023-06-01T03:35:23;96461.41;;;13.66;100.00
39243;BME280;29823;47.404;8.566;2023-06-01T03:37:51;96471.44;;;13.76;100.00
39243;BME280;29823;47.404;8.566;2023-06-01T03:40:18;96471.16;;;13.72;100.00
39243;BME280;29823;47.404;8.566;2023-06-01T03:42:48;96446.97;;;13.72;100.00
39243;BME280;29823;47.404;8.566;2023-06-01T03:45:16;96475.75;;;14.03;100.00
39243;BME280;29823;47.404;8.566;2023-06-01T03:47:44;96473.59;;;14.00;100.00
39243;BME280;29823;47.404;8.566;2023-06-01T03:50:12;96472.47;;;13.96;100.00
39243;BME280;29823;47.404;8.566;2023-06-01T03:52:40;96485.84;;;13.91;100.00
39243;BME280;29823;47.404;8.566;2023-06-01T03:55:08;96481.19;;;13.82;100.00
39243;BME280;29823;47.404;8.566;2023-06-01T03:57:37;96477.63;;;13.76;100.00
39243;BME280;29823;47.404;8.566;2023-06-01T04:00:08;96476.03;;;14.02;100.00
39243;BME280;29823;47.404;8.566;2023-06-01T04:02:49;96477.97;;;14.06;100.00
39243;BME280;29823;47.404;8.566;2023-06-01T04:05:19;96475.38;;;14.16;100.00
39243;BME280;29823;47.404;8.566;2023-06-01T04:07:48;96485.56;;;14.14;100.00
39243;BME280;29823;47.404;8.566;2023-06-01T04:10:17;96481.81;;;14.15;100.00
39243;BME280;29823;47.404;8.566;2023-06-01T04:12:47;96485.97;;;14.01;100.00
39243;BME280;29823;47.404;8.566;2023-06-01T04:15:17;96495.09;;;14.00;100.00
39243;BME280;29823;47.404;8.566;2023-06-01T04:17:46;96491.94;;;14.08;100.00
39243;BME280;29823;47.404;8.566;2023-06-01T04:20:15;96488.31;;;14.19;100.00
39243;BME280;29823;47.404;8.566;2023-06-01T04:22:44;96485.56;;;14.14;100.00
39243;BME280;29823;47.404;8.566;2023-06-01T04:25:15;96492.78;;;14.35;100.00
39243;BME280;29823;47.404;8.566;2023-06-01T04:27:48;96491.22;;;14.39;100.00
39243;BME280;29823;47.404;8.566;2023-06-01T04:30:19;96497.75;;;14.48;100.00
39243;BME280;29823;47.404;8.566;2023-06-01T04:32:49;96505.31;;;14.51;100.00
39243;BME280;29823;47.404;8.566;2023-06-01T04:35:17;96504.84;;;14.59;100.00
39243;BME280;29823;47.404;8.566;2023-06-01T04:37:45;96502.88;;;14.81;100.00
39243;BME280;29823;47.404;8.566;2023-06-01T04:40:13;96506.78;;;15.00;100.00
39243;BME280;29823;47.404;8.566;2023-06-01T04:42:42;96509.50;;;15.05;100.00
39243;BME280;29823;47.404;8.566;2023-06-01T04:45:12;96518.25;;;15.27;100.00
39243;BME280;29823;47.404;8.566;2023-06-01T04:47:41;96502.00;;;15.49;100.00
39243;BME280;29823;47.404;8.566;2023-06-01T04:50:12;96508.22;;;15.49;100.00
39243;BME280;29823;47.404;8.566;2023-06-01T04:52:42;96507.69;;;15.57;100.00
39243;BME280;29823;47.404;8.566;2023-06-01T04:55:11;96509.66;;;15.77;100.00
39243;BME280;29823;47.404;8.566;2023-06-01T04:57:40;96506.19;;;15.86;100.00
39243;BME280;29823;47.404;8.566;2023-06-01T05:00:12;96502.44;;;15.97;100.00
39243;BME280;29823;47.404;8.566;2023-06-01T05:02:42;96489.00;;;16.12;100.00
39243;BME280;29823;47.404;8.566;2023-06-01T05:05:11;96512.72;;;16.00;100.00
39243;BME280;29823;47.404;8.566;2023-06-01T05:07:39;96513.28;;;16.07;100.00
39243;BME280;29823;47.404;8.566;2023-06-01T05:10:10;96502.81;;;16.26;100.00
39243;BME280;29823;47.404;8.566;2023-06-01T05:12:38;96515.53;;;16.40;100.00
39243;BME280;29823;47.404;8.566;2023-06-01T05:15:07;96507.69;;;16.29;99.43
39243;BME280;29823;47.404;8.566;2023-06-01T05:17:35;96513.41;;;16.42;96.05
39243;BME280;29823;47.404;8.566;2023-06-01T05:20:08;96498.25;;;16.31;94.98
39243;BME280;29823;47.404;8.566;2023-06-01T05:22:38;96518.81;;;16.57;94.24
39243;BME280;29823;47.404;8.566;2023-06-01T05:25:06;96515.59;;;16.75;94.92
39243;BME280;29823;47.404;8.566;2023-06-01T05:27:34;96517.72;;;16.93;92.39
39243;BME280;29823;47.404;8.566;2023-06-01T05:30:02;96519.09;;;16.81;87.41
39243;BME280;29823;47.404;8.566;2023-06-01T05:32:30;96522.06;;;16.79;90.24
39243;BME280;29823;47.404;8.566;2023-06-01T05:34:58;96523.38;;;17.27;85.09
39243;BME280;29823;47.404;8.566;2023-06-01T05:37:27;96513.94;;;17.29;85.54
39243;BME280;29823;47.404;8.566;2023-06-01T05:39:55;96517.66;;;17.63;84.13
39243;BME280;29823;47.404;8.566;2023-06-01T05:42:22;96519.22;;;17.74;83.10
39243;BME280;29823;47.404;8.566;2023-06-01T05:44:51;96510.09;;;17.60;82.10
39243;BME280;29823;47.404;8.566;2023-06-01T05:47:18;96520.03;;;17.85;83.04
39243;BME280;29823;47.404;8.566;2023-06-01T05:49:46;96522.97;;;17.93;84.27
39243;BME280;29823;47.404;8.566;2023-06-01T05:52:14;96510.94;;;18.19;84.27
39243;BME280;29823;47.404;8.566;2023-06-01T05:54:43;96518.47;;;18.27;79.30
39243;BME280;29823;47.404;8.566;2023-06-01T05:57:11;96522.19;;;18.46;78.49
39243;BME280;29823;47.404;8.566;2023-06-01T05:59:39;96516.03;;;18.74;76.94
39243;BME280;29823;47.404;8.566;2023-06-01T06:02:08;96519.69;;;18.88;73.74
39243;BME280;29823;47.404;8.566;2023-06-01T06:04:36;96532.06;;;18.99;73.73
39243;BME280;29823;47.404;8.566;2023-06-01T06:07:05;96527.69;;;18.70;73.35
39243;BME280;29823;47.404;8.566;2023-06-01T06:09:33;96532.28;;;18.74;73.11
39243;BME280;29823;47.404;8.566;2023-06-01T06:12:03;96537.47;;;18.66;74.51
39243;BME280;29823;47.404;8.566;2023-06-01T06:14:32;96518.50;;;18.17;74.49
39243;BME280;29823;47.404;8.566;2023-06-01T06:17:00;96542.97;;;18.56;72.38
39243;BME280;29823;47.404;8.566;2023-06-01T06:19:29;96548.09;;;18.96;72.59
39243;BME280;29823;47.404;8.566;2023-06-01T06:21:57;96535.41;;;18.91;74.65
39243;BME280;29823;47.404;8.566;2023-06-01T06:24:25;96547.09;;;19.15;72.87
39243;BME280;29823;47.404;8.566;2023-06-01T06:26:53;96539.75;;;19.54;65.99
39243;BME280;29823;47.404;8.566;2023-06-01T06:29:22;96533.94;;;19.61;65.81
39243;BME280;29823;47.404;8.566;2023-06-01T06:31:50;96540.16;;;19.04;66.42
39243;BME280;29823;47.404;8.566;2023-06-01T06:34:17;96536.97;;;19.31;69.52
39243;BME280;29823;47.404;8.566;2023-06-01T06:36:45;96529.97;;;19.77;66.85
39243;BME280;29823;47.404;8.566;2023-06-01T06:39:13;96538.00;;;19.63;68.14
39243;BME280;29823;47.404;8.566;2023-06-01T06:41:41;96538.94;;;19.77;68.36
39243;BME280;29823;47.404;8.566;2023-06-01T06:44:10;96536.75;;;20.26;63.03
39243;BME280;29823;47.404;8.566;2023-06-01T06:46:40;96540.88;;;20.42;62.71
39243;BME280;29823;47.404;8.566;2023-06-01T06:49:08;96535.41;;;20.24;62.95
39243;BME280;29823;47.404;8.566;2023-06-01T06:51:37;96540.22;;;20.32;65.32
39243;BME280;29823;47.404;8.566;2023-06-01T06:54:05;96538.03;;;20.52;62.08
39243;BME280;29823;47.404;8.566;2023-06-01T06:56:33;96528.97;;;20.38;61.84
39243;BME280;29823;47.404;8.566;2023-06-01T06:59:01;96528.13;;;20.61;62.69
39243;BME280;29823;47.404;8.566;2023-06-01T07:01:34;96528.56;;;20.68;63.66
39243;BME280;29823;47.404;8.566;2023-06-01T07:04:08;96535.06;;;21.04;60.99
39243;BME280;29823;47.404;8.566;2023-06-01T07:06:36;96529.78;;;20.20;60.97
39243;BME280;29823;47.404;8.566;2023-06-01T07:09:04;96523.84;;;20.92;59.37
39243;BME280;29823;47.404;8.566;2023-06-01T07:11:34;96533.28;;;21.45;59.26
39243;BME280;29823;47.404;8.566;2023-06-01T07:14:02;96528.00;;;21.22;58.19
39243;BME280;29823;47.404;8.566;2023-06-01T07:16:29;96537.91;;;21.90;57.72
39243;BME280;29823;47.404;8.566;2023-06-01T07:18:57;96532.69;;;22.07;54.76
39243;BME280;29823;47.404;8.566;2023-06-01T07:21:27;96536.81;;;22.18;53.96
39243;BME280;29823;47.404;8.566;2023-06-01T07:23:54;96536.19;;;22.35;53.69
39243;BME280;29823;47.404;8.566;2023-06-01T07:26:22;96535.25;;;22.66;52.66
39243;BME280;29823;47.404;8.566;2023-06-01T07:28:51;96533.44;;;22.35;54.68
39243;BME280;29823;47.404;8.566;2023-06-01T07:31:20;96537.00;;;22.35;58.40
39243;BME280;29823;47.404;8.566;2023-06-01T07:33:48;96530.88;;;23.01;56.82
39243;BME280;29823;47.404;8.566;2023-06-01T07:36:17;96512.53;;;22.71;56.99
39243;BME280;29823;47.404;8.566;2023-06-01T07:38:47;96531.44;;;22.89;52.89
39243;BME280;29823;47.404;8.566;2023-06-01T07:41:15;96528.94;;;23.37;52.18
39243;BME280;29823;47.404;8.566;2023-06-01T07:43:43;96524.16;;;23.42;52.17
39243;BME280;29823;47.404;8.566;2023-06-01T07:46:10;96520.00;;;23.45;51.15
39243;BME280;29823;47.404;8.566;2023-06-01T07:48:38;96522.84;;;23.92;52.33
39243;BME280;29823;47.404;8.566;2023-06-01T07:51:06;96515.81;;;22.81;53.19
39243;BME280;29823;47.404;8.566;2023-06-01T07:53:34;96514.06;;;23.82;50.83
39243;BME280;29823;47.404;8.566;2023-06-01T07:56:04;96508.28;;;23.44;52.87
39243;BME280;29823;47.404;8.566;2023-06-01T07:58:31;96518.19;;;23.71;51.59
39243;BME280;29823;47.404;8.566;2023-06-01T08:00:59;96520.53;;;22.89;52.80
39243;BME280;29823;47.404;8.566;2023-06-01T08:03:28;96506.72;;;23.52;50.34
39243;BME280;29823;47.404;8.566;2023-06-01T08:05:56;96519.22;;;23.22;51.13
39243;BME280;29823;47.404;8.566;2023-06-01T08:08:26;96511.38;;;24.29;47.92
39243;BME280;29823;47.404;8.566;2023-06-01T08:10:54;96507.16;;;24.06;49.60
39243;BME280;29823;47.404;8.566;2023-06-01T08:13:24;96512.72;;;24.57;48.31
39243;BME280;29823;47.404;8.566;2023-06-01T08:15:52;96517.09;;;24.02;49.49
39243;BME280;29823;47.404;8.566;2023-06-01T08:18:20;96516.34;;;24.27;50.64
39243;BME280;29823;47.404;8.566;2023-06-01T08:20:48;96514.38;;;24.92;46.10
39243;BME280;29823;47.404;8.566;2023-06-01T08:23:16;96522.25;;;24.85;46.34
39243;BME280;29823;47.404;8.566;2023-06-01T08:25:45;96512.13;;;24.13;50.54
39243;BME280;29823;47.404;8.566;2023-06-01T08:28:13;96514.69;;;25.33;49.34
39243;BME280;29823;47.404;8.566;2023-06-01T08:30:42;96516.94;;;26.03;45.08
39243;BME280;29823;47.404;8.566;2023-06-01T08:33:10;96522.22;;;26.08;44.79
39243;BME280;29823;47.404;8.566;2023-06-01T08:35:37;96513.44;;;25.94;44.95
39243;BME280;29823;47.404;8.566;2023-06-01T08:38:05;96514.94;;;26.49;45.79
39243;BME280;29823;47.404;8.566;2023-06-01T08:40:33;96514.53;;;26.88;45.28
39243;BME280;29823;47.404;8.566;2023-06-01T08:43:09;96516.91;;;26.40;46.02
39243;BME280;29823;47.404;8.566;2023-06-01T08:45:43;96513.88;;;26.04;47.71
39243;BME280;29823;47.404;8.566;2023-06-01T08:48:15;96515.66;;;26.87;45.23
39243;BME280;29823;47.404;8.566;2023-06-01T08:50:44;96515.78;;;26.70;44.33
39243;BME280;29823;47.404;8.566;2023-06-01T08:53:12;96522.69;;;26.76;45.46
39243;BME280;29823;47.404;8.566;2023-06-01T08:55:40;96511.00;;;26.30;44.54
39243;BME280;29823;47.404;8.566;2023-06-01T08:58:09;96505.25;;;26.52;44.05
39243;BME280;29823;47.404;8.566;2023-06-01T09:00:37;96500.22;;;26.54;44.47
39243;BME280;29823;47.404;8.566;2023-06-01T09:03:07;96499.50;;;27.06;42.44
39243;BME280;29823;47.404;8.566;2023-06-01T09:05:35;96499.78;;;26.72;44.07
39243;BME280;29823;47.404;8.566;2023-06-01T09:08:03;96497.97;;;25.98;47.30
39243;BME280;29823;47.404;8.566;2023-06-01T09:10:31;96497.63;;;26.28;46.42
39243;BME280;29823;47.404;8.566;2023-06-01T09:12:59;96513.13;;;26.82;45.12
39243;BME280;29823;47.404;8.566;2023-06-01T09:15:27;96505.47;;;26.88;46.67
39243;BME280;29823;47.404;8.566;2023-06-01T09:18:05;96507.88;;;26.89;47.20
39243;BME280;29823;47.404;8.566;2023-06-01T09:20:34;96502.50;;;27.13;44.06
39243;BME280;29823;47.404;8.566;2023-06-01T09:23:04;96503.25;;;26.61;45.31
39243;BME280;29823;47.404;8.566;2023-06-01T09:25:32;96498.25;;;27.24;43.97
39243;BME280;29823;47.404;8.566;2023-06-01T09:28:01;96483.00;;;28.04;45.24
39243;BME280;29823;47.404;8.566;2023-06-01T09:30:38;96493.78;;;26.50;45.77
39243;BME280;29823;47.404;8.566;2023-06-01T09:33:09;96492.63;;;26.80;47.40
39243;BME280;29823;47.404;8.566;2023-06-01T09:35:42;96491.59;;;27.58;45.13
39243;BME280;29823;47.404;8.566;2023-06-01T09:38:10;96480.66;;;27.25;43.94
39243;BME280;29823;47.404;8.566;2023-06-01T09:40:38;96488.25;;;27.97;42.04
39243;BME280;29823;47.404;8.566;2023-06-01T09:43:19;96493.66;;;28.05;43.06
39243;BME280;29823;47.404;8.566;2023-06-01T09:46:04;96484.84;;;27.02;45.08
39243;BME280;29823;47.404;8.566;2023-06-01T09:48:32;96488.31;;;27.76;45.51
39243;BME280;29823;47.404;8.566;2023-06-01T09:51:02;96479.56;;;27.50;45.91
39243;BME280;29823;47.404;8.566;2023-06-01T09:53:40;96482.91;;;27.03;46.06
39243;BME280;29823;47.404;8.566;2023-06-01T09:56:07;96467.97;;;28.37;42.51
39243;BME280;29823;47.404;8.566;2023-06-01T09:58:35;96474.22;;;27.21;44.70
39243;BME280;29823;47.404;8.566;2023-06-01T10:01:06;96474.91;;;26.48;45.70
39243;BME280;29823;47.404;8.566;2023-06-01T10:03:38;96473.00;;;27.43;45.00
39243;BME280;29823;47.404;8.566;2023-06-01T10:06:10;96472.75;;;27.03;45.86
39243;BME280;29823;47.404;8.566;2023-06-01T10:08:40;96466.22;;;26.46;45.30
39243;BME280;29823;47.404;8.566;2023-06-01T10:11:08;96466.72;;;26.19;46.18
39243;BME280;29823;47.404;8.566;2023-06-01T10:13:37;96464.03;;;27.01;48.59
39243;BME280;29823;47.404;8.566;2023-06-01T10:16:06;96460.94;;;27.56;45.86
39243;BME280;29823;47.404;8.566;2023-06-01T10:18:34;96457.66;;;28.58;45.61
39243;BME280;29823;47.404;8.566;2023-06-01T10:21:04;96464.47;;;27.56;45.02
39243;BME280;29823;47.404;8.566;2023-06-01T10:23:34;96453.91;;;28.27;43.69
39243;BME280;29823;47.404;8.566;2023-06-01T10:26:07;96454.47;;;28.96;41.65
39243;BME280;29823;47.404;8.566;2023-06-01T10:28:37;96452.94;;;29.53;43.56
39243;BME280;29823;47.404;8.566;2023-06-01T10:31:32;96449.78;;;29.82;42.55
39243;BME280;29823;47.404;8.566;2023-06-01T10:34:00;96453.00;;;28.98;42.32
39243;BME280;29823;47.404;8.566;2023-06-01T10:39:32;96443.41;;;27.72;42.60
39243;BME280;29823;47.404;8.566;2023-06-01T10:42:38;96450.09;;;28.55;43.38
39243;BME280;29823;47.404;8.566;2023-06-01T10:45:08;96431.75;;;29.26;44.14
39243;BME280;29823;47.404;8.566;2023-06-01T10:47:56;96436.19;;;29.74;40.48
39243;BME280;29823;47.404;8.566;2023-06-01T10:50:24;96439.13;;;30.27;39.04
39243;BME280;29823;47.404;8.566;2023-06-01T10:52:53;96436.59;;;30.53;39.49
39243;BME280;29823;47.404;8.566;2023-06-01T10:55:27;96437.75;;;29.16;42.46
39243;BME280;29823;47.404;8.566;2023-06-01T10:58:20;96434.25;;;29.31;42.36
39243;BME280;29823;47.404;8.566;2023-06-01T11:00:52;96431.78;;;29.42;41.29
39243;BME280;29823;47.404;8.566;2023-06-01T11:03:43;96424.03;;;29.90;40.88
39243;BME280;29823;47.404;8.566;2023-06-01T11:06:28;96416.09;;;31.27;38.90
39243;BME280;29823;47.404;8.566;2023-06-01T11:08:58;96432.28;;;31.47;37.23
39243;BME280;29823;47.404;8.566;2023-06-01T11:11:59;96420.56;;;31.54;37.54
39243;BME280;29823;47.404;8.566;2023-06-01T11:14:29;96419.56;;;30.17;37.85
39243;BME280;29823;47.404;8.566;2023-06-01T11:17:25;96411.69;;;32.35;36.44
39243;BME280;29823;47.404;8.566;2023-06-01T11:20:02;96420.25;;;30.29;40.03
39243;BME280;29823;47.404;8.566;2023-06-01T11:22:36;96422.84;;;29.17;41.50
39243;BME280;29823;47.404;8.566;2023-06-01T11:25:05;96413.53;;;29.80;40.95
39243;BME280;29823;47.404;8.566;2023-06-01T11:27:36;96417.44;;;30.79;39.04
39243;BME280;29823;47.404;8.566;2023-06-01T11:30:05;96410.81;;;32.83;36.00
39243;BME280;29823;47.404;8.566;2023-06-01T11:32:35;96408.88;;;31.22;35.79
39243;BME280;29823;47.404;8.566;2023-06-01T11:35:16;96393.84;;;31.61;36.08
39243;BME280;29823;47.404;8.566;2023-06-01T11:37:44;96395.50;;;30.67;36.57
39243;BME280;29823;47.404;8.566;2023-06-01T11:40:14;96386.41;;;32.95;36.36
39243;BME280;29823;47.404;8.566;2023-06-01T11:42:43;96392.44;;;32.71;35.46
39243;BME280;29823;47.404;8.566;2023-06-01T11:45:14;96390.47;;;34.18;34.74
39243;BME280;29823;47.404;8.566;2023-06-01T11:47:43;96381.81;;;33.79;34.17
39243;BME280;29823;47.404;8.566;2023-06-01T11:50:22;96360.03;;;34.28;32.16
39243;BME280;29823;47.404;8.566;2023-06-01T11:52:54;96379.78;;;33.76;35.62
39243;BME280;29823;47.404;8.566;2023-06-01T11:55:23;96379.28;;;34.11;33.16
39243;BME280;29823;47.404;8.566;2023-06-01T11:57:53;96390.06;;;32.73;34.47
39243;BME280;29823;47.404;8.566;2023-06-01T12:00:21;96381.13;;;32.02;33.21
39243;BME280;29823;47.404;8.566;2023-06-01T12:03:04;96373.13;;;34.28;31.90
39243;BME280;29823;47.404;8.566;2023-06-01T12:05:38;96367.41;;;34.10;31.79
39243;BME280;29823;47.404;8.566;2023-06-01T12:08:06;96368.38;;;33.41;32.84
39243;BME280;29823;47.404;8.566;2023-06-01T12:10:35;96361.25;;;33.07;34.46
39243;BME280;29823;47.404;8.566;2023-06-01T12:13:05;96357.59;;;33.00;34.95
39243;BME280;29823;47.404;8.566;2023-06-01T12:15:33;96357.34;;;33.88;33.70
39243;BME280;29823;47.404;8.566;2023-06-01T12:18:01;96355.44;;;33.56;33.31
39243;BME280;29823;47.404;8.566;2023-06-01T12:20:31;96352.09;;;33.40;33.32
39243;BME280;29823;47.404;8.566;2023-06-01T12:22:59;96348.69;;;33.17;33.22
39243;BME280;29823;47.404;8.566;2023-06-01T12:25:30;96354.88;;;31.92;33.38
39243;BME280;29823;47.404;8.566;2023-06-01T12:28:03;96354.63;;;32.56;35.01
39243;BME280;29823;47.404;8.566;2023-06-01T12:30:32;96347.47;;;32.81;34.68
39243;BME280;29823;47.404;8.566;2023-06-01T12:33:00;96340.72;;;33.92;32.62
39243;BME280;29823;47.404;8.566;2023-06-01T12:35:31;96346.19;;;33.05;33.24
39243;BME280;29823;47.404;8.566;2023-06-01T12:38:06;96346.66;;;34.48;31.38
39243;BME280;29823;47.404;8.566;2023-06-01T12:40:35;96348.84;;;34.21;31.81
39243;BME280;29823;47.404;8.566;2023-06-01T12:43:03;96339.78;;;33.77;32.88
39243;BME280;29823;47.404;8.566;2023-06-01T12:45:36;96339.81;;;35.13;32.71
39243;BME280;29823;47.404;8.566;2023-06-01T12:48:05;96337.84;;;36.78;29.36
39243;BME280;29823;47.404;8.566;2023-06-01T12:50:33;96333.91;;;33.82;30.79
39243;BME280;29823;47.404;8.566;2023-06-01T12:53:01;96341.31;;;32.65;33.37
39243;BME280;29823;47.404;8.566;2023-06-01T12:55:30;96338.34;;;33.94;33.03
39243;BME280;29823;47.404;8.566;2023-06-01T12:57:58;96325.97;;;33.41;31.98
39243;BME280;29823;47.404;8.566;2023-06-01T13:00:25;96339.94;;;32.52;33.27
39243;BME280;29823;47.404;8.566;2023-06-01T13:03:15;96328.97;;;34.16;31.70
39243;BME280;29823;47.404;8.566;2023-06-01T13:05:43;96325.38;;;33.61;34.20
39243;BME280;29823;47.404;8.566;2023-06-01T13:08:12;96329.94;;;35.30;29.37
39243;BME280;29823;47.404;8.566;2023-06-01T13:10:40;96320.25;;;34.14;30.50
39243;BME280;29823;47.404;8.566;2023-06-01T13:13:09;96307.22;;;35.07;29.93
39243;BME280;29823;47.404;8.566;2023-06-01T13:15:39;96320.56;;;34.73;30.43
39243;BME280;29823;47.404;8.566;2023-06-01T13:18:07;96318.56;;;33.99;30.14